sensor_id;sensor_type;location;lat;lon;timestamp;pressure;altitude;pressure_sealevel;temperature;humidity
25156;BME280;21913;52.456;13.634;2023-04-27T00:00:56;100686.81;;;12.61;75.87
25156;BME280;21913;52.456;13.634;2023-04-27T00:05:58;100681.63;;;12.61;75.93
25156;BME280;21913;52.456;13.634;2023-04-27T00:10:59;100675.56;;;12.60;75.84
25156;BME280;21913;52.456;13.634;2023-04-27T00:16:01;100679.91;;;12.61;75.88
25156;BME280;21913;52.456;13.634;2023-04-27T00:21:03;100688.53;;;12.60;75.92
25156;BME280;21913;52.456;13.634;2023-04-27T00:26:04;100687.69;;;12.60;75.74
25156;BME280;21913;52.456;13.634;2023-04-27T00:31:06;100683.34;;;12.60;75.94
25156;BME280;21913;52.456;13.634;2023-04-27T00:36:07;100680.75;;;12.60;75.92
25156;BME280;21913;52.456;13.634;2023-04-27T00:41:09;100679.91;;;12.60;75.86
25156;BME280;21913;52.456;13.634;2023-04-27T00:46:12;100685.94;;;12.60;75.88
25156;BME280;21913;52.456;13.634;2023-04-27T00:51:14;100685.09;;;12.60;75.93
25156;BME280;21913;52.456;13.634;2023-04-27T00:56:15;100689.41;;;12.59;76.04
25156;BME280;21913;52.456;13.634;2023-04-27T01:01:17;100699.81;;;12.59;75.95
25156;BME280;21913;52.456;13.634;2023-04-27T01:06:18;100697.22;;;12.59;76.01
25156;BME280;21913;52.456;13.634;2023-04-27T01:11:20;100705.00;;;12.59;76.00
25156;BME280;21913;52.456;13.634;2023-04-27T01:16:21;100710.19;;;12.59;75.99
25156;BME280;21913;52.456;13.634;2023-04-27T01:21:23;100718.84;;;12.58;76.05
25156;BME280;21913;52.456;13.634;2023-04-27T01:26:25;100718.84;;;12.58;75.93
25156;BME280;21913;52.456;13.634;2023-04-27T01:31:26;100728.34;;;12.59;75.93
25156;BME280;21913;52.456;13.634;2023-04-27T01:36:28;100721.44;;;12.58;75.90
25156;BME280;21913;52.456;13.634;2023-04-27T01:41:29;100740.47;;;12.59;76.00
25156;BME280;21913;52.456;13.634;2023-04-27T01:46:31;100737.88;;;12.59;75.92
25156;BME280;21913;52.456;13.634;2023-04-27T01:51:33;100728.38;;;12.58;75.97
25156;BME280;21913;52.456;13.634;2023-04-27T01:56:34;100741.34;;;12.58;76.03
25156;BME280;21913;52.456;13.634;2023-04-27T02:01:36;100751.72;;;12.58;75.86
25156;BME280;21913;52.456;13.634;2023-04-27T02:06:37;100754.31;;;12.58;76.04
25156;BME280;21913;52.456;13.634;2023-04-27T02:11:40;100748.25;;;12.57;75.98
25156;BME280;21913;52.456;13.634;2023-04-27T02:16:41;100755.19;;;12.58;76.05
25156;BME280;21913;52.456;13.634;2023-04-27T02:21:43;100754.31;;;12.58;75.89
25156;BME280;21913;52.456;13.634;2023-04-27T02:26:45;100753.47;;;12.57;75.91
25156;BME280;21913;52.456;13.634;2023-04-27T02:31:46;100751.72;;;12.58;76.02
25156;BME280;21913;52.456;13.634;2023-04-27T02:36:47;100753.47;;;12.57;76.09
25156;BME280;21913;52.456;13.634;2023-04-27T02:41:49;100759.53;;;12.56;76.15
25156;BME280;21913;52.456;13.634;2023-04-27T02:46:50;100755.19;;;12.57;76.06
25156;BME280;21913;52.456;13.634;2023-04-27T02:51:52;100756.06;;;12.57;76.05
25156;BME280;21913;52.456;13.634;2023-04-27T02:56:53;100746.53;;;12.58;75.88
25156;BME280;21913;52.456;13.634;2023-04-27T03:01:58;100746.53;;;12.56;76.04
25156;BME280;21913;52.456;13.634;2023-04-27T03:06:59;100730.97;;;12.58;75.94
25156;BME280;21913;52.456;13.634;2023-04-27T03:12:01;100732.69;;;12.56;75.93
25156;BME280;21913;52.456;13.634;2023-04-27T03:17:02;100737.03;;;12.57;76.02
25156;BME280;21913;52.456;13.634;2023-04-27T03:22:04;100739.59;;;12.55;76.02
25156;BME280;21913;52.456;13.634;2023-04-27T03:27:05;100734.41;;;12.55;75.95
25156;BME280;21913;52.456;13.634;2023-04-27T03:32:06;100734.41;;;12.55;76.12
25156;BME280;21913;52.456;13.634;2023-04-27T03:37:08;100736.13;;;12.55;76.02
25156;BME280;21913;52.456;13.634;2023-04-27T03:42:10;100737.00;;;12.55;76.06
25156;BME280;21913;52.456;13.634;2023-04-27T03:47:12;100730.09;;;12.56;75.97
25156;BME280;21913;52.456;13.634;2023-04-27T03:52:14;100728.34;;;12.55;76.07
25156;BME280;21913;52.456;13.634;2023-04-27T03:57:15;100729.19;;;12.55;76.07
25156;BME280;21913;52.456;13.634;2023-04-27T04:02:17;100730.06;;;12.54;75.89
25156;BME280;21913;52.456;13.634;2023-04-27T04:07:19;100745.66;;;12.54;76.11
25156;BME280;21913;52.456;13.634;2023-04-27T04:12:20;100749.97;;;12.55;76.08
25156;BME280;21913;52.456;13.634;2023-04-27T04:17:23;100756.03;;;12.54;76.10
25156;BME280;21913;52.456;13.634;2023-04-27T04:22:25;100763.81;;;12.54;76.04
25156;BME280;21913;52.456;13.634;2023-04-27T04:27:27;100763.81;;;12.54;76.10
25156;BME280;21913;52.456;13.634;2023-04-27T04:32:28;100768.16;;;12.52;76.02
25156;BME280;21913;52.456;13.634;2023-04-27T04:37:32;100778.53;;;12.52;76.08
25156;BME280;21913;52.456;13.634;2023-04-27T04:42:37;100776.78;;;12.53;76.13
25156;BME280;21913;52.456;13.634;2023-04-27T04:47:40;100782.84;;;12.53;76.10
25156;BME280;21913;52.456;13.634;2023-04-27T04:52:42;100786.31;;;12.52;76.02
25156;BME280;21913;52.456;13.634;2023-04-27T04:57:43;100793.25;;;12.53;76.08
25156;BME280;21913;52.456;13.634;2023-04-27T05:02:44;100784.59;;;12.51;76.07
25156;BME280;21913;52.456;13.634;2023-04-27T05:07:46;100786.31;;;12.52;76.11
25156;BME280;21913;52.456;13.634;2023-04-27T05:12:47;100794.97;;;12.53;76.01
25156;BME280;21913;52.456;13.634;2023-04-27T05:17:49;100790.66;;;12.52;76.18
25156;BME280;21913;52.456;13.634;2023-04-27T05:22:50;100791.50;;;12.52;76.05
25156;BME280;21913;52.456;13.634;2023-04-27T05:27:52;100788.91;;;12.51;75.98
25156;BME280;21913;52.456;13.634;2023-04-27T05:32:53;100803.63;;;12.52;76.13
25156;BME280;21913;52.456;13.634;2023-04-27T05:37:55;100806.22;;;12.52;76.07
25156;BME280;21913;52.456;13.634;2023-04-27T05:42:57;100814.88;;;12.52;76.07
25156;BME280;21913;52.456;13.634;2023-04-27T05:47:58;100818.34;;;12.51;76.15
25156;BME280;21913;52.456;13.634;2023-04-27T05:53:00;100805.34;;;12.51;76.12
25156;BME280;21913;52.456;13.634;2023-04-27T05:58:01;100820.06;;;12.51;76.11
25156;BME280;21913;52.456;13.634;2023-04-27T06:03:07;100820.06;;;12.51;75.91
25156;BME280;21913;52.456;13.634;2023-04-27T06:08:10;100829.53;;;12.50;75.99
25156;BME280;21913;52.456;13.634;2023-04-27T06:13:11;100832.13;;;12.50;76.12
25156;BME280;21913;52.456;13.634;2023-04-27T06:18:13;100831.28;;;12.50;75.99
25156;BME280;21913;52.456;13.634;2023-04-27T06:23:14;100834.75;;;12.50;76.10
25156;BME280;21913;52.456;13.634;2023-04-27T06:28:16;100836.47;;;12.50;76.19
25156;BME280;21913;52.456;13.634;2023-04-27T06:33:17;100839.94;;;12.50;76.20
25156;BME280;21913;52.456;13.634;2023-04-27T06:38:19;100847.72;;;12.50;76.15
25156;BME280;21913;52.456;13.634;2023-04-27T06:43:20;100839.94;;;12.50;76.05
25156;BME280;21913;52.456;13.634;2023-04-27T06:48:22;100847.72;;;12.50;76.20
25156;BME280;21913;52.456;13.634;2023-04-27T06:53:23;100849.44;;;12.50;76.16
25156;BME280;21913;52.456;13.634;2023-04-27T06:58:25;100845.97;;;12.40;74.73
25156;BME280;21913;52.456;13.634;2023-04-27T07:03:26;100839.00;;;12.34;72.70
25156;BME280;21913;52.456;13.634;2023-04-27T07:08:28;100845.06;;;12.35;72.08
25156;BME280;21913;52.456;13.634;2023-04-27T07:13:29;100839.00;;;12.37;72.18
25156;BME280;21913;52.456;13.634;2023-04-27T07:18:31;100838.19;;;12.40;72.64
25156;BME280;21913;52.456;13.634;2023-04-27T07:23:32;100836.44;;;12.41;73.04
25156;BME280;21913;52.456;13.634;2023-04-27T07:28:34;100829.53;;;12.41;73.22
25156;BME280;21913;52.456;13.634;2023-04-27T07:33:36;100826.94;;;12.43;73.46
25156;BME280;21913;52.456;13.634;2023-04-27T07:38:37;100820.00;;;12.43;72.85
25156;BME280;21913;52.456;13.634;2023-04-27T07:43:39;100813.94;;;12.44;71.20
25156;BME280;21913;52.456;13.634;2023-04-27T07:48:40;100820.91;;;12.50;70.41
25156;BME280;21913;52.456;13.634;2023-04-27T07:53:42;100816.56;;;12.50;70.30
25156;BME280;21913;52.456;13.634;2023-04-27T07:58:43;100814.88;;;12.51;68.00
25156;BME280;21913;52.456;13.634;2023-04-27T08:03:45;100817.47;;;12.55;67.96
25156;BME280;21913;52.456;13.634;2023-04-27T08:08:46;100817.34;;;12.34;63.67
25156;BME280;21913;52.456;13.634;2023-04-27T08:13:48;100811.19;;;12.10;59.40
25156;BME280;21913;52.456;13.634;2023-04-27T08:18:49;100816.38;;;12.10;57.15
25156;BME280;21913;52.456;13.634;2023-04-27T08:23:50;100825.13;;;12.25;57.43
25156;BME280;21913;52.456;13.634;2023-04-27T08:28:52;100820.84;;;12.36;58.99
25156;BME280;21913;52.456;13.634;2023-04-27T08:33:54;100831.28;;;12.45;60.54
25156;BME280;21913;52.456;13.634;2023-04-27T08:38:57;100826.94;;;12.50;61.55
25156;BME280;21913;52.456;13.634;2023-04-27T08:43:58;100837.38;;;12.52;60.83
25156;BME280;21913;52.456;13.634;2023-04-27T08:49:00;100829.59;;;12.56;60.79
25156;BME280;21913;52.456;13.634;2023-04-27T08:54:01;100831.34;;;12.59;61.39
25156;BME280;21913;52.456;13.634;2023-04-27T08:59:12;100822.72;;;12.61;62.30
25156;BME280;21913;52.456;13.634;2023-04-27T09:04:15;100822.72;;;12.61;63.45
25156;BME280;21913;52.456;13.634;2023-04-27T09:09:23;100820.09;;;12.63;64.31
25156;BME280;21913;52.456;13.634;2023-04-27T09:14:24;100812.31;;;12.64;65.02
25156;BME280;21913;52.456;13.634;2023-04-27T09:19:28;100814.03;;;12.66;65.75
25156;BME280;21913;52.456;13.634;2023-04-27T09:24:30;100814.03;;;12.66;66.23
25156;BME280;21913;52.456;13.634;2023-04-27T09:29:35;100820.09;;;12.66;66.81
25156;BME280;21913;52.456;13.634;2023-04-27T09:34:38;100825.28;;;12.66;67.33
25156;BME280;21913;52.456;13.634;2023-04-27T09:39:40;100817.50;;;12.64;67.91
25156;BME280;21913;52.456;13.634;2023-04-27T09:44:42;100815.78;;;12.67;68.30
25156;BME280;21913;52.456;13.634;2023-04-27T09:49:43;100798.50;;;12.67;68.72
25156;BME280;21913;52.456;13.634;2023-04-27T09:54:45;100791.53;;;12.64;69.25
25156;BME280;21913;52.456;13.634;2023-04-27T10:05:21;100770.78;;;12.63;69.83
25156;BME280;21913;52.456;13.634;2023-04-27T10:10:27;100767.31;;;12.62;70.04
25156;BME280;21913;52.456;13.634;2023-04-27T10:15:28;100769.91;;;12.62;69.99
25156;BME280;21913;52.456;13.634;2023-04-27T10:20:32;100777.69;;;12.62;70.15
25156;BME280;21913;52.456;13.634;2023-04-27T10:25:39;100769.91;;;12.62;70.34
25156;BME280;21913;52.456;13.634;2023-04-27T10:30:43;100760.41;;;12.61;70.63
25156;BME280;21913;52.456;13.634;2023-04-27T10:35:56;100760.41;;;12.61;70.93
25156;BME280;21913;52.456;13.634;2023-04-27T10:41:00;100762.09;;;12.61;71.12
25156;BME280;21913;52.456;13.634;2023-04-27T10:46:13;100755.22;;;12.61;71.44
25156;BME280;21913;52.456;13.634;2023-04-27T10:51:15;100749.97;;;12.55;67.27
25156;BME280;21913;52.456;13.634;2023-04-27T10:56:17;100737.00;;;12.52;63.31
25156;BME280;21913;52.456;13.634;2023-04-27T11:01:23;100736.16;;;12.56;64.68
25156;BME280;21913;52.456;13.634;2023-04-27T11:06:25;100733.56;;;12.56;66.06
25156;BME280;21913;52.456;13.634;2023-04-27T11:11:26;100725.78;;;12.56;67.35
25156;BME280;21913;52.456;13.634;2023-04-27T11:16:29;100715.38;;;12.56;68.06
25156;BME280;21913;52.456;13.634;2023-04-27T11:21:32;100717.13;;;12.56;69.03
25156;BME280;21913;52.456;13.634;2023-04-27T11:26:34;100717.97;;;12.56;69.25
25156;BME280;21913;52.456;13.634;2023-04-27T11:31:45;100717.13;;;12.56;69.62
25156;BME280;21913;52.456;13.634;2023-04-27T11:36:56;100718.81;;;12.55;70.08
25156;BME280;21913;52.456;13.634;2023-04-27T11:42:18;100713.63;;;12.55;70.46
25156;BME280;21913;52.456;13.634;2023-04-27T11:47:20;100716.22;;;12.54;70.65
25156;BME280;21913;52.456;13.634;2023-04-27T11:52:27;100721.41;;;12.55;70.88
25156;BME280;21913;52.456;13.634;2023-04-27T11:57:31;100718.81;;;12.55;71.04
25156;BME280;21913;52.456;13.634;2023-04-27T12:02:32;100710.16;;;12.55;71.31
25156;BME280;21913;52.456;13.634;2023-04-27T12:07:34;100711.91;;;12.54;71.53
25156;BME280;21913;52.456;13.634;2023-04-27T12:12:35;100717.97;;;12.53;71.69
25156;BME280;21913;52.456;13.634;2023-04-27T12:17:38;100711.03;;;12.49;66.67
25156;BME280;21913;52.456;13.634;2023-04-27T12:22:39;100713.59;;;12.45;60.68
25156;BME280;21913;52.456;13.634;2023-04-27T12:27:41;100698.91;;;12.47;61.06
25156;BME280;21913;52.456;13.634;2023-04-27T12:32:42;100698.03;;;12.49;63.10
25156;BME280;21913;52.456;13.634;2023-04-27T12:37:44;100696.31;;;12.50;64.75
25156;BME280;21913;52.456;13.634;2023-04-27T12:42:45;100689.38;;;12.50;65.63
25156;BME280;21913;52.456;13.634;2023-04-27T12:47:47;100693.72;;;12.50;66.39
25156;BME280;21913;52.456;13.634;2023-04-27T12:52:59;100691.13;;;12.50;67.15
25156;BME280;21913;52.456;13.634;2023-04-27T12:58:01;100689.38;;;12.50;67.68
25156;BME280;21913;52.456;13.634;2023-04-27T13:03:03;100692.88;;;12.51;68.24
25156;BME280;21913;52.456;13.634;2023-04-27T13:08:04;100680.75;;;12.50;68.79
25156;BME280;21913;52.456;13.634;2023-04-27T13:13:06;100683.34;;;12.51;69.17
25156;BME280;21913;52.456;13.634;2023-04-27T13:18:07;100684.19;;;12.50;69.55
25156;BME280;21913;52.456;13.634;2023-04-27T13:23:09;100681.59;;;12.50;69.84
25156;BME280;21913;52.456;13.634;2023-04-27T13:28:11;100675.53;;;12.50;70.08
25156;BME280;21913;52.456;13.634;2023-04-27T13:33:13;100678.16;;;12.51;70.22
25156;BME280;21913;52.456;13.634;2023-04-27T13:38:21;100677.31;;;12.51;70.60
25156;BME280;21913;52.456;13.634;2023-04-27T13:43:23;100670.34;;;12.50;70.69
25156;BME280;21913;52.456;13.634;2023-04-27T13:48:25;100663.44;;;12.50;71.00
25156;BME280;21913;52.456;13.634;2023-04-27T13:53:26;100652.22;;;12.51;71.02
25156;BME280;21913;52.456;13.634;2023-04-27T13:58:28;100648.75;;;12.52;71.23
25156;BME280;21913;52.456;13.634;2023-04-27T14:03:30;100646.16;;;12.52;71.49
25156;BME280;21913;52.456;13.634;2023-04-27T14:08:32;100637.50;;;12.52;71.45
25156;BME280;21913;52.456;13.634;2023-04-27T14:13:33;100634.91;;;12.47;68.84
25156;BME280;21913;52.456;13.634;2023-04-27T14:18:35;100625.34;;;12.37;58.85
25156;BME280;21913;52.456;13.634;2023-04-27T14:23:36;100624.47;;;12.33;52.50
25156;BME280;21913;52.456;13.634;2023-04-27T14:28:37;100617.56;;;12.35;51.59
25156;BME280;21913;52.456;13.634;2023-04-27T14:33:39;100615.84;;;12.41;53.75
25156;BME280;21913;52.456;13.634;2023-04-27T14:38:40;100617.56;;;12.45;56.53
25156;BME280;21913;52.456;13.634;2023-04-27T14:43:42;100614.13;;;12.46;58.86
25156;BME280;21913;52.456;13.634;2023-04-27T14:48:44;100610.66;;;12.47;60.68
25156;BME280;21913;52.456;13.634;2023-04-27T14:53:46;100602.03;;;12.46;62.03
25156;BME280;21913;52.456;13.634;2023-04-27T14:58:47;100595.09;;;12.48;63.09
25156;BME280;21913;52.456;13.634;2023-04-27T15:03:49;100595.97;;;12.47;64.00
25156;BME280;21913;52.456;13.634;2023-04-27T15:08:50;100588.16;;;12.49;64.67
25156;BME280;21913;52.456;13.634;2023-04-27T15:13:52;100592.50;;;12.48;65.29
25156;BME280;21913;52.456;13.634;2023-04-27T15:18:53;100583.84;;;12.49;66.00
25156;BME280;21913;52.456;13.634;2023-04-27T15:23:55;100582.97;;;12.49;66.51
25156;BME280;21913;52.456;13.634;2023-04-27T15:28:57;100578.66;;;12.49;66.92
25156;BME280;21913;52.456;13.634;2023-04-27T15:33:58;100576.91;;;12.50;67.25
25156;BME280;21913;52.456;13.634;2023-04-27T15:39:00;100575.19;;;12.50;67.60
25156;BME280;21913;52.456;13.634;2023-04-27T15:44:01;100563.94;;;12.48;67.84
25156;BME280;21913;52.456;13.634;2023-04-27T15:49:03;100564.81;;;12.50;68.25
25156;BME280;21913;52.456;13.634;2023-04-27T15:54:04;100558.75;;;12.50;68.63
25156;BME280;21913;52.456;13.634;2023-04-27T15:59:05;100557.03;;;12.50;68.80
25156;BME280;21913;52.456;13.634;2023-04-27T16:04:07;100553.56;;;12.50;68.91
25156;BME280;21913;52.456;13.634;2023-04-27T16:09:09;100559.63;;;12.50;69.14
25156;BME280;21913;52.456;13.634;2023-04-27T16:14:11;100544.03;;;12.50;69.35
25156;BME280;21913;52.456;13.634;2023-04-27T16:19:12;100544.03;;;12.50;69.64
25156;BME280;21913;52.456;13.634;2023-04-27T16:24:14;100539.72;;;12.49;69.65
25156;BME280;21913;52.456;13.634;2023-04-27T16:29:15;100527.59;;;12.50;70.00
25156;BME280;21913;52.456;13.634;2023-04-27T16:34:17;100531.06;;;12.50;69.91
25156;BME280;21913;52.456;13.634;2023-04-27T16:39:18;100525.03;;;12.51;70.32
25156;BME280;21913;52.456;13.634;2023-04-27T16:44:20;100531.06;;;12.50;70.19
25156;BME280;21913;52.456;13.634;2023-04-27T16:49:21;100522.44;;;12.51;70.26
25156;BME280;21913;52.456;13.634;2023-04-27T16:54:24;100518.09;;;12.50;70.47
25156;BME280;21913;52.456;13.634;2023-04-27T16:59:25;100514.66;;;12.51;70.48
25156;BME280;21913;52.456;13.634;2023-04-27T17:04:27;100507.69;;;12.50;70.69
25156;BME280;21913;52.456;13.634;2023-04-27T17:09:28;100513.78;;;12.51;71.04
25156;BME280;21913;52.456;13.634;2023-04-27T17:14:30;100502.50;;;12.50;70.91
25156;BME280;21913;52.456;13.634;2023-04-27T17:19:31;100496.47;;;12.50;71.03
25156;BME280;21913;52.456;13.634;2023-04-27T17:24:33;100499.06;;;12.51;70.96
25156;BME280;21913;52.456;13.634;2023-04-27T17:29:34;100490.44;;;12.51;71.06
25156;BME280;21913;52.456;13.634;2023-04-27T17:34:35;100493.03;;;12.51;70.99
25156;BME280;21913;52.456;13.634;2023-04-27T17:39:37;100492.13;;;12.50;71.09
25156;BME280;21913;52.456;13.634;2023-04-27T17:44:38;100491.28;;;12.51;71.09
25156;BME280;21913;52.456;13.634;2023-04-27T17:49:40;100491.28;;;12.51;71.17
25156;BME280;21913;52.456;13.634;2023-04-27T17:54:41;100486.97;;;12.52;71.32
25156;BME280;21913;52.456;13.634;2023-04-27T17:59:43;100484.34;;;12.50;71.13
25156;BME280;21913;52.456;13.634;2023-04-27T18:04:44;100480.91;;;12.53;70.95
25156;BME280;21913;52.456;13.634;2023-04-27T18:09:46;100469.66;;;12.52;70.81
25156;BME280;21913;52.456;13.634;2023-04-27T18:14:47;100461.88;;;12.52;70.96
25156;BME280;21913;52.456;13.634;2023-04-27T18:19:49;100459.28;;;12.52;71.31
25156;BME280;21913;52.456;13.634;2023-04-27T18:24:55;100462.72;;;12.53;71.46
25156;BME280;21913;52.456;13.634;2023-04-27T18:29:57;100459.28;;;12.52;71.59
25156;BME280;21913;52.456;13.634;2023-04-27T18:34:59;100460.13;;;12.53;71.69
25156;BME280;21913;52.456;13.634;2023-04-27T18:40:00;100465.31;;;12.53;71.75
25156;BME280;21913;52.456;13.634;2023-04-27T18:45:02;100467.06;;;12.52;71.81
25156;BME280;21913;52.456;13.634;2023-04-27T18:50:04;100464.47;;;12.52;71.84
25156;BME280;21913;52.456;13.634;2023-04-27T18:55:07;100468.78;;;12.53;71.95
25156;BME280;21913;52.456;13.634;2023-04-27T19:00:09;100461.00;;;12.52;72.05
25156;BME280;21913;52.456;13.634;2023-04-27T19:05:11;100461.88;;;12.52;71.76
25156;BME280;21913;52.456;13.634;2023-04-27T19:10:13;100463.59;;;12.52;72.12
25156;BME280;21913;52.456;13.634;2023-04-27T19:15:15;100469.66;;;12.52;72.06
25156;BME280;21913;52.456;13.634;2023-04-27T19:20:16;100472.25;;;12.52;72.26
25156;BME280;21913;52.456;13.634;2023-04-27T19:25:18;100471.38;;;12.52;72.35
25156;BME280;21913;52.456;13.634;2023-04-27T19:30:19;100467.06;;;12.52;72.25
25156;BME280;21913;52.456;13.634;2023-04-27T19:35:21;100467.06;;;12.52;72.27
25156;BME280;21913;52.456;13.634;2023-04-27T19:40:22;100461.88;;;12.52;72.21
25156;BME280;21913;52.456;13.634;2023-04-27T19:45:24;100455.81;;;12.52;72.23
25156;BME280;21913;52.456;13.634;2023-04-27T19:50:25;100448.91;;;12.51;72.19
25156;BME280;21913;52.456;13.634;2023-04-27T19:55:27;100448.88;;;12.52;72.35
25156;BME280;21913;52.456;13.634;2023-04-27T20:00:28;100437.66;;;12.52;72.34
25156;BME280;21913;52.456;13.634;2023-04-27T20:05:30;100441.09;;;12.52;72.34
25156;BME280;21913;52.456;13.634;2023-04-27T20:10:31;100435.06;;;12.52;72.42
25156;BME280;21913;52.456;13.634;2023-04-27T20:15:33;100425.53;;;12.52;72.42
25156;BME280;21913;52.456;13.634;2023-04-27T20:20:35;100426.41;;;12.53;72.45
25156;BME280;21913;52.456;13.634;2023-04-27T20:25:36;100428.13;;;12.54;72.55
25156;BME280;21913;52.456;13.634;2023-04-27T20:30:37;100413.41;;;12.53;72.63
25156;BME280;21913;52.456;13.634;2023-04-27T20:35:39;100402.19;;;12.52;72.48
25156;BME280;21913;52.456;13.634;2023-04-27T20:40:40;100399.56;;;12.52;72.57
25156;BME280;21913;52.456;13.634;2023-04-27T20:45:42;100402.19;;;12.52;72.54
25156;BME280;21913;52.456;13.634;2023-04-27T20:50:44;100399.56;;;12.54;72.46
25156;BME280;21913;52.456;13.634;2023-04-27T20:55:45;100389.19;;;12.54;72.61
25156;BME280;21913;52.456;13.634;2023-04-27T21:00:47;100382.28;;;12.53;72.50
25156;BME280;21913;52.456;13.634;2023-04-27T21:05:48;100390.94;;;12.52;72.58
25156;BME280;21913;52.456;13.634;2023-04-27T21:10:50;100384.00;;;12.52;72.51
25156;BME280;21913;52.456;13.634;2023-04-27T21:15:51;100379.69;;;12.53;72.41
25156;BME280;21913;52.456;13.634;2023-04-27T21:20:53;100378.81;;;12.54;72.62
25156;BME280;21913;52.456;13.634;2023-04-27T21:25:54;100371.88;;;12.53;72.64
25156;BME280;21913;52.456;13.634;2023-04-27T21:30:56;100361.50;;;12.53;72.60
25156;BME280;21913;52.456;13.634;2023-04-27T21:35:57;100352.84;;;12.52;72.68
25156;BME280;21913;52.456;13.634;2023-04-27T21:40:59;100351.97;;;12.53;72.62
25156;BME280;21913;52.456;13.634;2023-04-27T21:46:00;100345.06;;;12.54;72.56
25156;BME280;21913;52.456;13.634;2023-04-27T21:51:02;100344.19;;;12.55;72.77
25156;BME280;21913;52.456;13.634;2023-04-27T21:56:04;100332.09;;;12.54;72.75
25156;BME280;21913;52.456;13.634;2023-04-27T22:01:05;100314.78;;;12.53;72.68
25156;BME280;21913;52.456;13.634;2023-04-27T22:06:07;100308.75;;;12.52;72.72
25156;BME280;21913;52.456;13.634;2023-04-27T22:11:08;100282.78;;;12.52;72.72
25156;BME280;21913;52.456;13.634;2023-04-27T22:16:10;100275.00;;;12.52;72.75
25156;BME280;21913;52.456;13.634;2023-04-27T22:21:12;100281.03;;;12.54;72.69
25156;BME280;21913;52.456;13.634;2023-04-27T22:26:14;100281.91;;;12.53;72.77
25156;BME280;21913;52.456;13.634;2023-04-27T22:31:15;100274.13;;;12.53;72.68
25156;BME280;21913;52.456;13.634;2023-04-27T22:36:17;100259.44;;;12.52;72.79
25156;BME280;21913;52.456;13.634;2023-04-27T22:41:18;100249.91;;;12.53;72.74
25156;BME280;21913;52.456;13.634;2023-04-27T22:46:20;100241.25;;;12.52;72.79
25156;BME280;21913;52.456;13.634;2023-04-27T22:51:21;100238.66;;;12.54;72.76
25156;BME280;21913;52.456;13.634;2023-04-27T22:56:23;100236.94;;;12.53;72.93
25156;BME280;21913;52.456;13.634;2023-04-27T23:01:24;100221.34;;;12.53;72.90
25156;BME280;21913;52.456;13.634;2023-04-27T23:06:26;100228.28;;;12.54;72.80
25156;BME280;21913;52.456;13.634;2023-04-27T23:11:27;100213.56;;;12.54;72.78
25156;BME280;21913;52.456;13.634;2023-04-27T23:16:29;100207.50;;;12.54;72.88
25156;BME280;21913;52.456;13.634;2023-04-27T23:21:30;100207.50;;;12.54;72.90
25156;BME280;21913;52.456;13.634;2023-04-27T23:26:31;100206.66;;;12.53;72.73
25156;BME280;21913;52.456;13.634;2023-04-27T23:31:33;100203.16;;;12.54;72.82
25156;BME280;21913;52.456;13.634;2023-04-27T23:36:34;100197.13;;;12.54;72.80
25156;BME280;21913;52.456;13.634;2023-04-27T23:41:36;100188.47;;;12.53;72.85
25156;BME280;21913;52.456;13.634;2023-04-27T23:46:37;100178.09;;;12.53;72.90
25156;BME280;21913;52.456;13.634;2023-04-27T23:51:39;100166.84;;;12.54;72.85
25156;BME280;21913;52.456;13.634;2023-04-27T23:56:40;100169.44;;;12.53;72.97
